Time;durP1;ratioP1;P1;durP2;ratioP2;P2;SDS_P1;SDS_P2;PMS_P1;PMS_P2;Temp;Humidity;BMP_temperature;BMP_pressure;BME280_temperature;BME280_humidity;BME280_pressure;Samples;Min_cycle;Max_cycle;Signal;HPM_P1;HPM_P2
2022/12/26 00:04:50;;;;;;;17.33;9.98;;;;;;;;;;21252618;27;20098;-63
2022/12/26 00:14:52;;;;;;;16.13;9.60;;;;;;;;;;21251748;27;20402;-59
2022/12/26 00:24:54;;;;;;;18.60;10.13;;;;;;;;;;21251619;27;20051;-60
2022/12/26 00:34:56;;;;;;;16.45;9.52;;;;;;;;;;21250873;27;20050;-59
2022/12/26 00:44:57;;;;;;;14.15;8.13;;;;;;;;;;21249468;27;20058;-60
2022/12/26 00:54:59;;;;;;;14.35;8.20;;;;;;;;;;21248584;27;20054;-59
2022/12/26 01:05:01;;;;;;;15.65;8.88;;;;;;;;;;21248386;27;20046;-58
2022/12/26 01:15:04;;;;;;;18.60;9.32;;;;;;;;;;21248320;28;20483;-60
2022/12/26 01:25:06;;;;;;;17.20;9.00;;;;;;;;;;21248988;27;20051;-60
2022/12/26 01:35:08;;;;;;;16.27;9.73;;;;;;;;;;21264714;27;20064;-62
2022/12/26 01:45:23;;;;;;;20.40;9.32;;;;;;;;;;21263478;27;20070;-58
2022/12/26 01:55:25;;;;;;;17.80;9.68;;;;;;;;;;21262723;27;20482;-61
2022/12/26 02:05:34;;;;;;;16.98;8.98;;;;;;;;;;21262097;27;20499;-60
2022/12/26 02:15:36;;;;;;;;;;;;;;;;;;21262186;27;20050;-59
2022/12/26 02:25:59;;;;;;;18.23;8.15;;;;;;;;;;21243730;27;20275;-61
2022/12/26 02:36:19;;;;;;;14.43;8.23;;;;;;;;;;21259531;27;20047;-67
2022/12/26 03:17:43;;;;;;;15.63;8.45;;;;;;;;;;21256340;27;20099;-60
2022/12/26 03:27:48;;;;;;;16.27;7.72;;;;;;;;;;21255315;27;20108;-59
2022/12/26 03:37:55;;;;;;;17.42;7.60;;;;;;;;;;21255450;27;20043;-59
2022/12/26 04:19:55;;;;;;;11.98;6.85;;;;;;;;;;20824875;28;20566;-60
2022/12/26 04:51:20;;;;;;;13.68;6.80;;;;;;;;;;21250345;27;20719;-59
2022/12/26 05:11:48;;;;;;;12.80;7.18;;;;;;;;;;21249532;27;20054;-59
2022/12/26 05:42:43;;;;;;;15.13;6.38;;;;;;;;;;21246796;28;20044;-60
2022/12/26 05:52:45;;;;;;;12.27;6.57;;;;;;;;;;21247299;28;20051;-60
2022/12/26 06:02:48;;;;;;;10.93;6.03;;;;;;;;;;21246509;28;20058;-61
2022/12/26 06:12:50;;;;;;;9.82;5.97;;;;;;;;;;21249196;27;20047;-62
2022/12/26 06:22:53;;;;;;;13.60;6.65;;;;;;;;;;21243450;27;20402;-60
2022/12/26 06:32:55;;;;;;;10.68;6.38;;;;;;;;;;21260762;27;20066;-62
2022/12/26 06:42:57;;;;;;;10.15;6.00;;;;;;;;;;21259009;27;20467;-67
2022/12/26 06:52:59;;;;;;;12.20;6.60;;;;;;;;;;21260194;27;20546;-69
2022/12/26 07:03:01;;;;;;;12.02;6.30;;;;;;;;;;21257900;27;20109;-59
2022/12/26 07:13:03;;;;;;;11.02;6.45;;;;;;;;;;21256764;27;20403;-58
2022/12/26 07:23:06;;;;;;;11.63;6.20;;;;;;;;;;21256312;27;20054;-58
2022/12/26 07:33:08;;;;;;;13.57;6.97;;;;;;;;;;21255325;27;20051;-66
2022/12/26 07:43:10;;;;;;;10.00;5.90;;;;;;;;;;21254023;27;20474;-60
2022/12/26 07:53:15;;;;;;;14.32;7.35;;;;;;;;;;21236050;27;20467;-60
2022/12/26 08:03:17;;;;;;;10.60;5.93;;;;;;;;;;21252851;27;20133;-61
2022/12/26 08:13:19;;;;;;;10.73;5.93;;;;;;;;;;21252722;27;20142;-65
2022/12/26 08:23:21;;;;;;;14.35;6.28;;;;;;;;;;21252024;27;20388;-59
2022/12/26 08:33:23;;;;;;;12.00;6.55;;;;;;;;;;21250312;27;20104;-59
2022/12/26 08:43:25;;;;;;;11.05;6.03;;;;;;;;;;21248859;27;20047;-58
2022/12/26 08:53:28;;;;;;;12.38;6.85;;;;;;;;;;21231253;27;20418;-59
2022/12/26 09:03:30;;;;;;;12.15;6.55;;;;;;;;;;21248372;27;20043;-59
2022/12/26 09:13:33;;;;;;;15.80;8.50;;;;;;;;;;21248886;27;20047;-60
2022/12/26 09:23:36;;;;;;;19.13;9.18;;;;;;;;;;21248024;28;20145;-59
2022/12/26 09:33:38;;;;;;;14.95;7.22;;;;;;;;;;21228877;28;20108;-60
2022/12/26 09:43:52;;;;;;;11.40;6.97;;;;;;;;;;21246579;28;20051;-60
2022/12/26 09:53:54;;;;;;;17.45;8.45;;;;;;;;;;21253290;27;20057;-61
2022/12/26 10:03:58;;;;;;;15.27;8.75;;;;;;;;;;21261975;27;20078;-61
2022/12/26 10:14:03;;;;;;;20.05;10.88;;;;;;;;;;21242722;27;20491;-63
2022/12/26 10:24:15;;;;;;;14.68;6.80;;;;;;;;;;21260891;27;20054;-59
2022/12/26 10:34:20;;;;;;;12.07;6.30;;;;;;;;;;21241558;27;20047;-60
2022/12/26 10:44:22;;;;;;;12.35;7.03;;;;;;;;;;21258147;27;20051;-67
2022/12/26 10:54:24;;;;;;;16.77;6.93;;;;;;;;;;21258586;27;20402;-61
2022/12/26 11:04:26;;;;;;;10.75;6.03;;;;;;;;;;21257090;27;20055;-60
2022/12/26 11:14:28;;;;;;;10.48;6.03;;;;;;;;;;21256517;27;20043;-60
2022/12/26 11:24:29;;;;;;;9.45;5.30;;;;;;;;;;21256654;27;20049;-66
2022/12/26 11:34:33;;;;;;;7.75;4.10;;;;;;;;;;21257890;27;20054;-62
2022/12/26 11:44:39;;;;;;;10.73;4.07;;;;;;;;;;21255034;27;20047;-62
2022/12/26 11:54:49;;;;;;;7.80;4.68;;;;;;;;;;21253467;27;20043;-61
2022/12/26 12:04:52;;;;;;;9.20;3.90;;;;;;;;;;21252004;27;20407;-61
2022/12/26 12:14:56;;;;;;;7.13;2.70;;;;;;;;;;21249956;27;20134;-61
2022/12/26 12:25:16;;;;;;;6.57;2.95;;;;;;;;;;21250366;27;20104;-61
2022/12/26 12:35:24;;;;;;;9.67;4.40;;;;;;;;;;21250592;27;20391;-64
2022/12/26 12:45:31;;;;;;;10.18;2.78;;;;;;;;;;21248554;27;20082;-66
2022/12/26 12:55:39;;;;;;;6.93;3.10;;;;;;;;;;21248819;27;20051;-65
2022/12/26 13:05:47;;;;;;;9.00;3.40;;;;;;;;;;21228598;27;20086;-60
2022/12/26 13:15:52;;;;;;;6.07;2.60;;;;;;;;;;21247160;27;20055;-62
2022/12/26 13:26:16;;;;;;;7.20;1.90;;;;;;;;;;21258212;27;20128;-61
2022/12/26 13:36:36;;;;;;;8.80;2.75;;;;;;;;;;21263355;27;20493;-60
2022/12/26 13:46:43;;;;;;;6.25;2.65;;;;;;;;;;21263051;27;20057;-60
2022/12/26 13:56:44;;;;;;;8.88;2.08;;;;;;;;;;21261417;27;20051;-63
2022/12/26 14:07:05;;;;;;;19.13;4.18;;;;;;;;;;21260738;27;20043;-60
2022/12/26 14:17:10;;;;;;;5.88;2.22;;;;;;;;;;21259817;27;20078;-67
2022/12/26 14:27:31;;;;;;;5.68;2.30;;;;;;;;;;21259911;27;20130;-68
2022/12/26 14:37:45;;;;;;;4.85;2.30;;;;;;;;;;21257399;27;20079;-63
2022/12/26 14:47:48;;;;;;;8.70;2.30;;;;;;;;;;21257494;27;20050;-64
2022/12/26 14:57:51;;;;;;;6.82;2.38;;;;;;;;;;21257446;27;20166;-61
2022/12/26 15:07:56;;;;;;;5.35;2.58;;;;;;;;;;21257304;27;20043;-61
2022/12/26 15:18:16;;;;;;;6.32;2.80;;;;;;;;;;21256636;27;20451;-66
2022/12/26 15:28:34;;;;;;;10.70;6.00;;;;;;;;;;21254786;27;20054;-63
2022/12/26 15:38:35;;;;;;;8.57;3.03;;;;;;;;;;21253882;27;20523;-59
2022/12/26 15:48:43;;;;;;;11.23;4.50;;;;;;;;;;21253267;27;20475;-60
2022/12/26 15:59:04;;;;;;;8.63;3.03;;;;;;;;;;21252251;27;20058;-59
2022/12/26 16:09:24;;;;;;;7.43;2.20;;;;;;;;;;21233575;27;20134;-63
2022/12/26 16:19:27;;;;;;;8.30;3.00;;;;;;;;;;21251773;27;20124;-62
2022/12/26 16:29:30;;;;;;;6.18;2.58;;;;;;;;;;21252055;27;20590;-66
2022/12/26 16:39:32;;;;;;;9.52;3.50;;;;;;;;;;21251848;27;20134;-61
2022/12/26 16:49:34;;;;;;;11.60;4.05;;;;;;;;;;21248390;27;20491;-64
2022/12/26 16:59:56;;;;;;;8.10;4.15;;;;;;;;;;21247832;27;20108;-64
2022/12/26 17:10:00;;;;;;;11.43;4.80;;;;;;;;;;21248996;27;20130;-59
2022/12/26 17:20:28;;;;;;;12.43;4.88;;;;;;;;;;21247426;28;20047;-60
2022/12/26 17:30:31;;;;;;;10.10;3.92;;;;;;;;;;21243181;28;20487;-59
2022/12/26 17:40:34;;;;;;;11.30;4.68;;;;;;;;;;21228203;28;20407;-61
2022/12/26 17:50:39;;;;;;;16.50;6.28;;;;;;;;;;21246804;28;20043;-62
2022/12/26 18:00:42;;;;;;;16.05;7.20;;;;;;;;;;21245974;28;20138;-61
2022/12/26 18:10:44;;;;;;;12.82;5.50;;;;;;;;;;21252542;27;20111;-65
2022/12/26 18:20:45;;;;;;;14.82;6.25;;;;;;;;;;21225679;27;20502;-61
2022/12/26 18:30:48;;;;;;;13.25;6.10;;;;;;;;;;21260521;27;20458;-63
2022/12/26 18:40:56;;;;;;;20.23;9.45;;;;;;;;;;21260092;27;20133;-60
2022/12/26 18:50:58;;;;;;;20.67;10.57;;;;;;;;;;21241584;27;20051;-63
2022/12/26 19:01:01;;;;;;;17.90;8.18;;;;;;;;;;21257886;27;20158;-61
2022/12/26 19:11:03;;;;;;;19.63;8.48;;;;;;;;;;21257722;27;20549;-60
2022/12/26 19:21:10;;;;;;;26.00;12.00;;;;;;;;;;21256412;27;20521;-60
2022/12/26 19:31:13;;;;;;;22.42;10.00;;;;;;;;;;21256122;27;20392;-60
2022/12/26 19:41:14;;;;;;;20.67;9.75;;;;;;;;;;21255066;27;20061;-62
2022/12/26 19:51:17;;;;;;;19.75;9.23;;;;;;;;;;21253770;27;20050;-62
2022/12/26 20:01:20;;;;;;;34.28;14.43;;;;;;;;;;21233712;27;20146;-60
2022/12/26 20:11:23;;;;;;;17.85;8.57;;;;;;;;;;21251718;27;20134;-62
2022/12/26 20:21:25;;;;;;;16.98;9.48;;;;;;;;;;21250160;27;20051;-61
2022/12/26 20:31:28;;;;;;;16.30;7.50;;;;;;;;;;21249117;27;20563;-61
2022/12/26 20:41:30;;;;;;;14.60;7.68;;;;;;;;;;21250146;27;20051;-59
2022/12/26 20:51:34;;;;;;;19.42;9.70;;;;;;;;;;21248732;27;20043;-60
2022/12/26 21:01:38;;;;;;;23.90;8.73;;;;;;;;;;21248583;27;20074;-60
2022/12/26 21:11:41;;;;;;;20.05;8.30;;;;;;;;;;21248017;27;20100;-62
2022/12/26 21:21:46;;;;;;;11.65;4.95;;;;;;;;;;21249264;28;20141;-61
2022/12/26 21:31:48;;;;;;;14.25;5.15;;;;;;;;;;21247519;28;20150;-62
2022/12/26 21:41:50;;;;;;;17.88;5.78;;;;;;;;;;21248251;27;20054;-61
2022/12/26 21:51:52;;;;;;;15.15;7.25;;;;;;;;;;21263636;27;20133;-61
2022/12/26 22:01:54;;;;;;;9.23;5.18;;;;;;;;;;21262228;27;20055;-63
2022/12/26 22:22:23;;;;;;;8.88;5.25;;;;;;;;;;21260483;27;20047;-64
2022/12/26 22:32:29;;;;;;;12.75;5.38;;;;;;;;;;21259228;27;20505;-61
2022/12/26 22:42:33;;;;;;;13.15;4.85;;;;;;;;;;21259587;27;20054;-62
2022/12/26 22:52:36;;;;;;;11.80;4.32;;;;;;;;;;21259622;27;20479;-59
2022/12/26 23:02:39;;;;;;;9.50;4.90;;;;;;;;;;21257754;27;20058;-58
2022/12/26 23:12:42;;;;;;;11.18;3.80;;;;;;;;;;21257196;27;20047;-60
2022/12/26 23:22:46;;;;;;;12.15;4.30;;;;;;;;;;21257099;27;20388;-66
2022/12/26 23:32:51;;;;;;;11.35;5.22;;;;;;;;;;21256205;27;20047;-63
2022/12/26 23:42:53;;;;;;;8.35;5.70;;;;;;;;;;21255098;27;20043;-60
2022/12/26 23:52:55;;;;;;;9.32;4.95;;;;;;;;;;21254600;27;20051;-62
